createdAt,value
2023-02-05T00:00:43.889Z,103278.50
2023-02-05T00:03:10.343Z,103223.56
2023-02-05T00:03:34.505Z,103223.56
2023-02-05T00:05:36.800Z,103275.03
2023-02-05T00:08:03.212Z,103261.16
2023-02-05T00:08:34.447Z,103261.16
2023-02-05T00:10:29.623Z,103164.19
2023-02-05T00:12:55.955Z,103214.81
2023-02-05T00:13:34.488Z,103214.81
2023-02-05T00:15:22.336Z,103233.19
2023-02-05T00:17:48.673Z,103183.41
2023-02-05T00:18:34.415Z,103183.41
2023-02-05T00:20:17.508Z,103240.22
2023-02-05T00:22:43.941Z,103158.16
2023-02-05T00:23:34.452Z,103158.16
2023-02-05T00:25:10.425Z,103234.13
2023-02-05T00:27:36.858Z,103224.56
2023-02-05T00:28:35.513Z,103224.56
2023-02-05T00:30:03.337Z,103218.47
2023-02-05T00:32:29.744Z,103208.88
2023-02-05T00:33:34.420Z,103208.88
2023-02-05T00:34:56.137Z,103214.94
2023-02-05T00:37:22.463Z,103163.41
2023-02-05T00:38:34.444Z,103163.41
2023-02-05T00:39:48.929Z,103189.56
2023-02-05T00:42:15.364Z,103158.19
2023-02-05T00:43:34.455Z,103158.19
2023-02-05T00:44:41.737Z,103217.53
2023-02-05T00:47:08.050Z,103189.66
2023-02-05T00:48:34.469Z,103189.66
2023-02-05T00:49:34.379Z,103209.72
2023-02-05T00:52:00.841Z,103198.38
2023-02-05T00:53:34.463Z,103198.38
2023-02-05T00:54:27.209Z,103134.66
2023-02-05T00:56:53.550Z,103179.22
2023-02-05T00:58:34.518Z,103179.22
2023-02-05T00:59:19.875Z,103089.41
2023-02-05T01:01:46.397Z,103159.31
2023-02-05T01:03:34.481Z,103159.31
2023-02-05T01:04:12.809Z,103149.72
2023-02-05T01:06:39.135Z,103154.97
2023-02-05T01:08:34.612Z,103154.97
2023-02-05T01:09:05.535Z,103165.47
2023-02-05T01:11:32.034Z,103144.53
2023-02-05T01:13:34.477Z,103144.53
2023-02-05T01:13:58.422Z,103084.47
2023-02-05T01:16:24.860Z,103115.94
2023-02-05T01:18:34.468Z,103115.94
2023-02-05T01:18:52.637Z,102898.00
2023-02-05T01:21:18.971Z,103115.06
2023-02-05T01:23:34.590Z,103115.06
2023-02-05T01:23:45.370Z,103088.13
2023-02-05T01:26:14.326Z,103096.81
2023-02-05T01:28:34.476Z,103096.81
2023-02-05T01:28:40.667Z,103046.34
2023-02-05T01:31:07.062Z,103067.22
2023-02-05T01:33:33.419Z,103066.34
2023-02-05T01:33:34.465Z,103066.34
2023-02-05T01:35:59.914Z,103075.03
2023-02-05T01:38:26.323Z,102924.88
2023-02-05T01:38:34.455Z,102924.88
2023-02-05T01:40:52.815Z,102986.97
2023-02-05T01:43:19.442Z,103004.41
2023-02-05T01:43:34.450Z,103004.41
2023-02-05T01:46:00.433Z,103062.09
2023-02-05T01:48:36.108Z,103048.97
2023-02-05T01:48:36.245Z,103048.97
2023-02-05T01:51:07.401Z,103029.78
2023-02-05T01:53:36.016Z,103049.78
2023-02-05T01:53:36.167Z,103049.78
2023-02-05T01:56:08.275Z,103071.63
2023-02-05T01:58:41.214Z,103068.91
2023-02-05T01:58:41.379Z,103068.91
2023-02-05T02:01:08.013Z,103076.81
2023-02-05T02:03:34.650Z,103050.63
2023-02-05T02:03:34.763Z,103050.63
2023-02-05T02:06:01.110Z,102989.66
2023-02-05T02:08:27.597Z,103063.75
2023-02-05T02:08:34.482Z,103063.75
2023-02-05T02:10:57.701Z,103048.91
2023-02-05T02:13:26.546Z,103005.31
2023-02-05T02:13:34.534Z,103005.31
2023-02-05T02:15:53.484Z,102961.75
2023-02-05T02:18:27.060Z,103011.34
2023-02-05T02:18:34.533Z,103011.34
2023-02-05T02:21:26.940Z,103089.72
2023-02-05T02:23:34.500Z,103089.72
2023-02-05T02:24:14.091Z,103102.75
2023-02-05T02:27:19.332Z,103101.84
2023-02-05T02:28:34.468Z,103101.84
2023-02-05T02:29:53.813Z,103105.28
2023-02-05T02:32:41.354Z,103103.50
2023-02-05T02:33:34.487Z,103103.50
2023-02-05T02:35:16.772Z,103107.88
2023-02-05T02:37:53.343Z,103066.81
2023-02-05T02:38:34.485Z,103066.81
2023-02-05T02:40:26.186Z,103076.50
2023-02-05T02:43:04.885Z,103093.09
2023-02-05T02:43:34.506Z,103093.09
2023-02-05T02:45:35.218Z,103100.13
2023-02-05T02:48:04.211Z,103004.19
2023-02-05T02:48:34.485Z,103004.19
2023-02-05T02:50:35.552Z,103043.47
2023-02-05T02:53:16.520Z,103055.75
2023-02-05T02:53:34.491Z,103055.75
2023-02-05T02:55:44.432Z,103018.28
2023-02-05T02:58:22.920Z,103046.25
2023-02-05T02:58:34.492Z,103046.25
2023-02-05T03:00:49.930Z,103078.47
2023-02-05T03:03:20.740Z,103035.63
2023-02-05T03:03:34.534Z,103035.63
2023-02-05T03:05:49.508Z,103065.47
2023-02-05T03:08:23.467Z,103073.31
2023-02-05T03:08:34.479Z,103073.31
2023-02-05T03:11:02.765Z,103063.78
2023-02-05T03:13:29.923Z,103021.09
2023-02-05T03:13:34.528Z,103021.09
2023-02-05T03:15:56.547Z,103000.28
2023-02-05T03:18:23.429Z,102976.75
2023-02-05T03:18:34.506Z,102976.75
2023-02-05T03:20:54.238Z,102928.88
2023-02-05T03:23:21.215Z,103041.28
2023-02-05T03:23:34.506Z,103041.28
2023-02-05T03:25:47.635Z,103038.69
2023-02-05T03:28:14.679Z,103043.03
2023-02-05T03:28:34.510Z,103043.03
2023-02-05T03:31:06.039Z,103040.47
2023-02-05T03:33:45.647Z,102979.50
2023-02-05T03:33:45.812Z,102979.50
2023-02-05T03:36:25.676Z,103037.91
2023-02-05T03:38:34.491Z,103037.91
2023-02-05T03:39:10.758Z,103030.09
2023-02-05T03:41:58.320Z,102908.13
2023-02-05T03:43:34.535Z,102908.13
2023-02-05T03:44:46.932Z,102988.25
2023-02-05T03:47:28.188Z,102940.34
2023-02-05T03:48:34.482Z,102940.34
2023-02-05T03:50:03.163Z,103015.34
2023-02-05T03:52:35.694Z,102960.47
2023-02-05T03:53:34.489Z,102960.47
2023-02-05T03:55:14.328Z,103017.97
2023-02-05T03:57:58.803Z,103024.91
2023-02-05T03:58:34.491Z,103024.91
2023-02-05T04:00:26.140Z,102943.88
2023-02-05T04:02:52.994Z,103010.97
2023-02-05T04:03:34.489Z,103010.97
2023-02-05T04:05:22.844Z,102959.56
2023-02-05T04:07:50.610Z,103022.31
2023-02-05T04:08:34.507Z,103022.31
2023-02-05T04:10:19.975Z,103027.56
2023-02-05T04:12:46.323Z,103044.09
2023-02-05T04:13:34.625Z,103044.09
2023-02-05T04:15:13.040Z,102968.28
2023-02-05T04:17:39.623Z,102984.81
2023-02-05T04:18:34.467Z,102984.81
2023-02-05T04:20:07.675Z,103017.94
2023-02-05T04:22:34.095Z,103029.31
2023-02-05T04:23:34.530Z,103029.31
2023-02-05T04:25:00.690Z,102991.03
2023-02-05T04:27:27.069Z,102949.19
2023-02-05T04:28:34.489Z,102949.19
2023-02-05T04:29:53.392Z,103040.66
2023-02-05T04:32:19.860Z,103052.84
2023-02-05T04:33:34.468Z,103052.84
2023-02-05T04:34:46.522Z,103060.66
2023-02-05T04:37:12.952Z,103032.75
2023-02-05T04:38:34.491Z,103032.75
2023-02-05T04:39:39.353Z,103033.63
2023-02-05T04:42:05.787Z,103073.72
2023-02-05T04:43:34.484Z,103073.72
2023-02-05T04:44:32.158Z,103057.13
2023-02-05T04:46:59.473Z,103080.66
2023-02-05T04:48:34.505Z,103080.66
2023-02-05T04:49:25.850Z,103032.72
2023-02-05T04:51:52.252Z,103061.50
2023-02-05T04:53:34.553Z,103061.50
2023-02-05T04:54:18.665Z,103020.56
2023-02-05T04:56:46.802Z,103077.22
2023-02-05T04:58:34.508Z,103077.22
2023-02-05T04:59:13.267Z,102990.94
2023-02-05T05:01:40.562Z,103038.81
2023-02-05T05:03:34.487Z,103038.81
2023-02-05T05:04:07.036Z,103066.75
2023-02-05T05:06:33.874Z,103026.69
2023-02-05T05:08:34.481Z,103026.69
2023-02-05T05:09:00.300Z,103020.53
2023-02-05T05:11:26.772Z,102952.59
2023-02-05T05:13:34.600Z,102952.59
2023-02-05T05:13:53.186Z,102869.00
2023-02-05T05:16:20.096Z,103064.16
2023-02-05T05:18:34.533Z,103064.16
2023-02-05T05:18:46.661Z,102983.97
2023-02-05T05:21:13.254Z,103062.31
2023-02-05T05:23:34.477Z,103062.31
2023-02-05T05:23:39.696Z,103017.91
2023-02-05T05:26:08.022Z,103065.88
2023-02-05T05:28:35.363Z,103065.88
2023-02-05T05:28:35.488Z,103065.88
2023-02-05T05:31:10.520Z,103033.59
2023-02-05T05:33:34.495Z,103033.59
2023-02-05T05:33:37.714Z,103058.88
2023-02-05T05:36:05.234Z,103076.28
2023-02-05T05:38:31.786Z,103073.69
2023-02-05T05:38:34.524Z,103073.69
2023-02-05T05:41:16.633Z,103031.81
2023-02-05T05:43:34.509Z,103031.81
2023-02-05T05:43:49.079Z,102994.41
2023-02-05T05:46:24.550Z,103030.06
2023-02-05T05:48:34.537Z,103030.06
2023-02-05T05:48:52.476Z,103071.09
2023-02-05T05:51:19.632Z,103068.47
2023-02-05T05:53:34.530Z,103068.47
2023-02-05T05:53:47.022Z,102983.09
2023-02-05T05:56:13.795Z,103069.34
2023-02-05T05:58:34.503Z,103069.34
2023-02-05T05:58:40.376Z,103074.53
2023-02-05T06:01:07.944Z,102990.84
2023-02-05T06:03:34.639Z,103001.31
2023-02-05T06:03:34.773Z,103001.31
2023-02-05T06:06:05.893Z,103029.16
2023-02-05T06:08:33.081Z,103077.13
2023-02-05T06:08:34.508Z,103077.13
2023-02-05T06:10:59.801Z,103077.13
2023-02-05T06:13:26.813Z,103073.63
2023-02-05T06:13:34.591Z,103073.63
2023-02-05T06:15:55.492Z,103047.50
2023-02-05T06:18:23.787Z,103021.31
2023-02-05T06:18:34.497Z,103021.31
2023-02-05T06:20:50.728Z,103043.97
2023-02-05T06:23:17.147Z,103046.63
2023-02-05T06:23:34.550Z,103046.63
2023-02-05T06:25:43.565Z,102980.41
2023-02-05T06:28:09.994Z,103008.22
2023-02-05T06:28:34.631Z,103008.22
2023-02-05T06:30:36.397Z,103067.50
2023-02-05T06:33:02.849Z,102865.41
2023-02-05T06:33:34.492Z,102865.41
2023-02-05T06:35:29.565Z,103056.16
2023-02-05T06:37:56.016Z,103035.31
2023-02-05T06:38:34.509Z,103035.31
2023-02-05T06:40:25.906Z,103064.94
2023-02-05T06:42:53.689Z,103071.84
2023-02-05T06:43:34.510Z,103071.84
2023-02-05T06:45:20.386Z,103020.44
2023-02-05T06:47:47.315Z,102942.88
2023-02-05T06:48:34.508Z,102942.88
2023-02-05T06:50:14.038Z,103058.78
2023-02-05T06:52:40.633Z,103051.84
2023-02-05T06:53:34.484Z,103051.84
2023-02-05T06:55:07.374Z,103031.78
2023-02-05T06:57:33.789Z,103044.88
2023-02-05T06:58:34.520Z,103044.88
2023-02-05T07:00:02.545Z,103011.75
2023-02-05T07:02:29.069Z,103044.91
2023-02-05T07:03:34.568Z,103044.91
2023-02-05T07:04:55.607Z,103012.63
2023-02-05T07:07:22.040Z,102983.03
2023-02-05T07:08:34.537Z,102983.03
2023-02-05T07:09:48.729Z,103025.75
2023-02-05T07:12:15.256Z,103025.78
2023-02-05T07:13:34.504Z,103025.78
2023-02-05T07:14:42.291Z,102966.50
2023-02-05T07:17:09.349Z,102973.50
2023-02-05T07:18:34.501Z,102973.50
2023-02-05T07:19:36.506Z,102996.19
2023-02-05T07:22:03.409Z,103038.03
2023-02-05T07:23:34.582Z,103038.03
2023-02-05T07:24:30.184Z,103029.31
2023-02-05T07:26:56.592Z,102943.13
2023-02-05T07:28:34.503Z,102943.13
2023-02-05T07:29:22.963Z,102955.31
2023-02-05T07:31:51.084Z,102957.94
2023-02-05T07:33:34.524Z,102957.94
2023-02-05T07:34:17.604Z,103024.97
2023-02-05T07:36:44.100Z,102895.22
2023-02-05T07:38:34.485Z,102895.22
2023-02-05T07:39:10.669Z,102909.19
2023-02-05T07:41:37.029Z,103020.63
2023-02-05T07:43:34.522Z,103020.63
2023-02-05T07:44:03.495Z,102956.22
2023-02-05T07:46:30.001Z,103006.78
2023-02-05T07:48:34.525Z,103006.78
2023-02-05T07:48:56.399Z,102923.19
2023-02-05T07:51:24.424Z,103002.34
2023-02-05T07:53:34.501Z,103002.34
2023-02-05T07:53:51.844Z,103008.47
2023-02-05T07:56:21.642Z,102951.03
2023-02-05T07:58:34.491Z,102951.03
2023-02-05T07:58:49.309Z,102992.84
2023-02-05T08:01:15.782Z,102899.63
2023-02-05T08:03:34.508Z,102899.63
2023-02-05T08:03:42.401Z,102732.63
2023-02-05T08:06:11.537Z,102973.66
2023-02-05T08:08:34.492Z,102973.66
2023-02-05T08:08:38.097Z,102877.97
2023-02-05T08:11:06.111Z,102970.22
2023-02-05T08:13:33.394Z,102870.13
2023-02-05T08:13:34.507Z,102870.13
2023-02-05T08:16:00.091Z,102952.81
2023-02-05T08:18:26.447Z,102931.88
2023-02-05T08:18:34.501Z,102931.88
2023-02-05T08:20:54.277Z,102927.50
2023-02-05T08:23:21.835Z,102780.47
2023-02-05T08:23:34.490Z,102780.47
2023-02-05T08:25:48.379Z,102770.84
2023-02-05T08:28:14.821Z,102958.88
2023-02-05T08:28:34.490Z,102958.88
2023-02-05T08:30:44.433Z,102977.94
2023-02-05T08:33:10.838Z,102883.97
2023-02-05T08:33:34.517Z,102883.97
2023-02-05T08:35:39.033Z,102887.44
2023-02-05T08:38:05.455Z,102961.41
2023-02-05T08:38:34.512Z,102961.41
2023-02-05T08:40:31.995Z,102989.31
2023-02-05T08:43:00.244Z,102980.63
2023-02-05T08:43:34.570Z,102980.63
2023-02-05T08:45:27.848Z,102984.09
2023-02-05T08:47:54.353Z,102923.97
2023-02-05T08:48:34.533Z,102923.97
2023-02-05T08:50:21.939Z,102796.81
2023-02-05T08:52:49.670Z,103002.25
2023-02-05T08:53:34.516Z,103002.25
2023-02-05T08:55:43.690Z,102984.00
2023-02-05T08:58:10.119Z,102998.78
2023-02-05T08:58:34.521Z,102998.78
2023-02-05T09:00:38.885Z,102929.94
2023-02-05T09:03:06.576Z,102981.34
2023-02-05T09:03:34.505Z,102981.34
2023-02-05T09:05:33.327Z,103011.88
2023-02-05T09:07:59.864Z,103013.56
2023-02-05T09:08:34.512Z,103013.56
2023-02-05T09:10:26.387Z,103006.59
2023-02-05T09:12:53.096Z,102955.22
2023-02-05T09:13:34.546Z,102955.22
2023-02-05T09:15:19.526Z,102943.94
2023-02-05T09:17:46.365Z,102900.31
2023-02-05T09:18:34.568Z,102900.31
2023-02-05T09:20:12.864Z,102898.63
2023-02-05T09:22:39.238Z,103010.13
2023-02-05T09:23:34.540Z,103010.13
2023-02-05T09:25:07.259Z,103023.19
2023-02-05T09:27:34.073Z,103030.16
2023-02-05T09:28:34.518Z,103030.16
2023-02-05T09:30:00.523Z,102946.38
2023-02-05T09:32:26.953Z,102946.44
2023-02-05T09:33:34.523Z,102946.44
2023-02-05T09:34:53.251Z,103036.22
2023-02-05T09:37:19.784Z,103030.13
2023-02-05T09:38:34.515Z,103030.13
2023-02-05T09:40:19.575Z,102895.97
2023-02-05T09:42:46.563Z,102918.66
2023-02-05T09:43:34.555Z,102918.66
2023-02-05T09:45:47.037Z,103053.72
2023-02-05T09:48:34.368Z,103031.84
2023-02-05T09:48:34.524Z,103031.84
2023-02-05T09:51:01.632Z,103042.22
2023-02-05T09:53:35.392Z,103070.94
2023-02-05T09:53:35.551Z,103070.94
2023-02-05T09:56:04.227Z,103056.13
2023-02-05T09:58:34.914Z,103082.28
2023-02-05T09:58:35.539Z,103082.28
2023-02-05T10:01:06.511Z,103074.47
2023-02-05T10:03:45.295Z,103079.63
2023-02-05T10:03:45.469Z,103079.63
2023-02-05T10:06:46.860Z,103068.25
2023-02-05T10:08:36.277Z,103068.25
2023-02-05T10:09:31.429Z,103087.41
2023-02-05T10:12:13.764Z,103057.75
2023-02-05T10:13:34.552Z,103057.75
2023-02-05T10:15:00.493Z,103084.81
2023-02-05T10:17:45.161Z,103089.19
2023-02-05T10:18:34.517Z,103089.19
2023-02-05T10:20:38.836Z,103089.19
2023-02-05T10:23:16.906Z,103077.03
2023-02-05T10:23:34.593Z,103077.03
2023-02-05T10:26:12.360Z,103084.84
2023-02-05T10:28:34.529Z,103084.84
2023-02-05T10:29:03.844Z,103080.50
2023-02-05T10:31:41.251Z,103084.91
2023-02-05T10:33:34.544Z,103084.91
2023-02-05T10:34:34.988Z,103073.56
2023-02-05T10:37:04.355Z,103081.44
2023-02-05T10:38:34.537Z,103081.44
2023-02-05T10:39:31.345Z,103062.28
2023-02-05T10:42:34.138Z,103070.13
2023-02-05T10:43:34.544Z,103070.13
2023-02-05T10:45:22.330Z,103067.63
2023-02-05T10:47:56.597Z,103081.44
2023-02-05T10:48:34.534Z,103081.44
2023-02-05T10:50:46.840Z,103000.44
2023-02-05T10:53:21.646Z,103069.38
2023-02-05T10:53:34.542Z,103069.38
2023-02-05T10:55:48.196Z,103096.31
2023-02-05T10:58:38.764Z,103059.78
2023-02-05T10:58:38.933Z,103059.78
2023-02-05T11:01:22.657Z,103075.44
2023-02-05T11:03:34.514Z,103075.44
2023-02-05T11:03:59.151Z,103074.56
2023-02-05T11:06:27.319Z,102911.56
2023-02-05T11:08:34.542Z,102911.56
2023-02-05T11:08:54.080Z,103051.81
2023-02-05T11:11:28.536Z,103052.59
2023-02-05T11:13:34.548Z,103052.59
2023-02-05T11:14:04.600Z,103054.41
2023-02-05T11:16:38.735Z,103075.28
2023-02-05T11:18:34.540Z,103075.28
2023-02-05T11:19:19.102Z,103070.06
2023-02-05T11:21:57.959Z,103013.41
2023-02-05T11:23:34.540Z,103013.41
2023-02-05T11:24:39.452Z,103076.22
2023-02-05T11:27:26.458Z,103067.59
2023-02-05T11:28:34.528Z,103067.59
2023-02-05T11:29:54.891Z,103067.63
2023-02-05T11:32:33.185Z,103070.13
2023-02-05T11:33:34.600Z,103070.13
2023-02-05T11:35:30.405Z,103059.69
2023-02-05T11:38:29.858Z,103075.41
2023-02-05T11:38:34.578Z,103075.41
2023-02-05T11:41:03.051Z,103071.84
2023-02-05T11:43:36.296Z,103023.94
2023-02-05T11:43:36.494Z,103023.94
2023-02-05T11:46:08.035Z,102997.84
2023-02-05T11:48:39.955Z,103068.38
2023-02-05T11:48:40.161Z,103068.38
2023-02-05T11:51:09.242Z,102990.81
2023-02-05T11:53:37.536Z,103062.22
2023-02-05T11:53:37.661Z,103062.22
2023-02-05T11:56:10.583Z,103084.94
2023-02-05T11:58:36.642Z,103084.94
2023-02-05T11:58:37.810Z,102989.97
2023-02-05T12:01:24.503Z,103063.09
2023-02-05T12:03:34.582Z,103063.09
2023-02-05T12:04:15.097Z,103031.75
2023-02-05T12:06:56.229Z,103002.88
2023-02-05T12:08:34.534Z,103002.88
2023-02-05T12:09:25.040Z,102920.13
2023-02-05T12:12:33.901Z,103029.97
2023-02-05T12:13:34.541Z,103029.97
2023-02-05T12:15:19.699Z,103082.25
2023-02-05T12:17:58.745Z,103109.16
2023-02-05T12:18:34.537Z,103109.16
2023-02-05T12:20:34.250Z,103090.94
2023-02-05T12:23:41.432Z,103090.03
2023-02-05T12:23:41.606Z,103090.03
2023-02-05T12:26:13.924Z,103088.31
2023-02-05T12:28:34.535Z,103088.31
2023-02-05T12:28:50.783Z,103002.13
2023-02-05T12:31:47.143Z,103093.56
2023-02-05T12:33:34.537Z,103093.56
2023-02-05T12:34:35.595Z,103070.09
2023-02-05T12:37:40.756Z,103077.13
2023-02-05T12:38:34.565Z,103077.13
2023-02-05T12:40:16.999Z,103033.44
2023-02-05T12:42:57.693Z,103046.53
2023-02-05T12:43:36.785Z,103046.53
2023-02-05T12:45:51.772Z,103088.38
2023-02-05T12:48:45.721Z,103085.72
2023-02-05T12:48:45.879Z,103085.72
2023-02-05T12:51:42.954Z,103076.97
2023-02-05T12:53:34.526Z,103076.97
2023-02-05T12:54:35.360Z,103072.63
2023-02-05T12:57:06.795Z,103065.69
2023-02-05T12:58:34.558Z,103065.69
2023-02-05T12:59:40.133Z,103077.06
2023-02-05T13:02:38.991Z,103091.94
2023-02-05T13:03:34.532Z,103091.94
2023-02-05T13:05:23.705Z,103087.56
2023-02-05T13:08:19.116Z,103057.09
2023-02-05T13:08:34.526Z,103057.09
2023-02-05T13:10:52.523Z,103077.97
2023-02-05T13:13:28.008Z,103090.97
2023-02-05T13:13:35.538Z,103090.97
2023-02-05T13:16:09.475Z,103015.16
2023-02-05T13:18:34.537Z,103015.16
2023-02-05T13:18:41.700Z,103034.31
2023-02-05T13:21:32.130Z,103081.34
2023-02-05T13:23:34.547Z,103081.34
2023-02-05T13:24:30.922Z,103097.09
2023-02-05T13:27:16.644Z,103106.69
2023-02-05T13:28:34.576Z,103106.69
2023-02-05T13:29:51.057Z,103083.13
2023-02-05T13:32:21.681Z,102934.94
2023-02-05T13:33:34.553Z,102934.94
2023-02-05T13:34:48.135Z,103024.75
2023-02-05T13:37:37.731Z,103112.72
2023-02-05T13:38:34.569Z,103112.72
2023-02-05T13:40:04.131Z,103098.78
2023-02-05T13:42:49.074Z,103107.50
2023-02-05T13:43:34.547Z,103107.50
2023-02-05T13:45:48.357Z,103082.25
2023-02-05T13:48:39.538Z,103118.84
2023-02-05T13:48:39.685Z,103118.84
2023-02-05T13:51:40.032Z,103148.41
2023-02-05T13:53:34.531Z,103148.41
2023-02-05T13:54:25.097Z,103134.53
2023-02-05T13:57:09.932Z,103051.69
2023-02-05T13:58:34.547Z,103051.69
2023-02-05T13:59:42.145Z,103113.50
2023-02-05T14:02:33.916Z,103117.03
2023-02-05T14:03:34.613Z,103117.03
2023-02-05T14:05:02.823Z,103070.81
2023-02-05T14:07:32.980Z,103148.47
2023-02-05T14:08:34.632Z,103148.47
2023-02-05T14:10:02.549Z,103155.41
2023-02-05T14:12:34.999Z,103064.75
2023-02-05T14:13:34.571Z,103064.75
2023-02-05T14:15:16.934Z,103158.91
2023-02-05T14:17:43.326Z,102951.44
2023-02-05T14:18:34.577Z,102951.44
2023-02-05T14:20:25.139Z,103151.13
2023-02-05T14:22:52.905Z,103025.50
2023-02-05T14:23:34.567Z,103025.50
2023-02-05T14:25:38.274Z,103150.22
2023-02-05T14:28:19.290Z,103150.22
2023-02-05T14:28:34.623Z,103150.22
2023-02-05T14:31:03.841Z,103099.59
2023-02-05T14:33:44.098Z,103087.41
2023-02-05T14:33:44.276Z,103087.41
2023-02-05T14:36:16.934Z,103158.88
2023-02-05T14:38:34.551Z,103158.88
2023-02-05T14:38:45.689Z,103163.25
2023-02-05T14:41:16.056Z,103144.13
2023-02-05T14:43:34.542Z,103144.13
2023-02-05T14:43:46.503Z,103111.78
2023-02-05T14:46:37.283Z,103181.50
2023-02-05T14:48:34.576Z,103181.50
2023-02-05T14:49:06.517Z,103084.66
2023-02-05T14:51:41.492Z,103127.41
2023-02-05T14:53:34.563Z,103127.41
2023-02-05T14:54:18.153Z,103168.47
2023-02-05T14:57:10.713Z,103174.53
2023-02-05T14:58:34.628Z,103174.53
2023-02-05T14:59:50.030Z,103170.22
2023-02-05T15:02:54.760Z,103178.91
2023-02-05T15:03:34.558Z,103178.91
2023-02-05T15:05:40.979Z,103133.56
2023-02-05T15:08:13.375Z,103170.22
2023-02-05T15:08:34.548Z,103170.22
2023-02-05T15:11:12.183Z,103015.81
2023-02-05T15:13:34.661Z,103015.81
2023-02-05T15:13:38.760Z,103079.41
2023-02-05T15:16:11.046Z,103177.97
2023-02-05T15:18:34.565Z,103177.97
2023-02-05T15:18:51.030Z,103178.84
2023-02-05T15:21:21.509Z,103144.69
2023-02-05T15:23:34.574Z,103144.69
2023-02-05T15:23:53.082Z,103134.22
2023-02-05T15:26:42.712Z,103197.91
2023-02-05T15:28:34.566Z,103197.91
2023-02-05T15:29:09.160Z,103202.28
2023-02-05T15:31:55.437Z,103221.47
2023-02-05T15:33:34.569Z,103221.47
2023-02-05T15:34:47.875Z,103204.06
2023-02-05T15:37:27.361Z,103203.22
2023-02-05T15:38:34.578Z,103203.22
2023-02-05T15:40:02.920Z,103163.84
2023-02-05T15:42:37.260Z,103112.34
2023-02-05T15:43:34.617Z,103112.34
2023-02-05T15:45:44.706Z,103226.66
2023-02-05T15:48:11.002Z,103231.06
2023-02-05T15:48:34.591Z,103231.06
2023-02-05T15:51:03.717Z,103224.97
2023-02-05T15:53:50.576Z,103229.31
2023-02-05T15:53:50.786Z,103229.31
2023-02-05T15:56:20.031Z,103228.44
2023-02-05T15:58:34.545Z,103228.44
2023-02-05T15:58:50.518Z,103109.72
2023-02-05T16:01:31.085Z,103236.22
2023-02-05T16:03:34.574Z,103236.22
2023-02-05T16:03:58.092Z,103139.94
2023-02-05T16:06:26.729Z,103245.63
2023-02-05T16:08:34.545Z,103245.63
2023-02-05T16:08:53.708Z,103053.50
2023-02-05T16:11:28.784Z,103242.75
2023-02-05T16:13:34.574Z,103242.75
2023-02-05T16:14:15.515Z,103236.69
2023-02-05T16:17:07.809Z,103208.69
2023-02-05T16:18:34.564Z,103208.69
2023-02-05T16:19:41.988Z,103249.66
2023-02-05T16:22:22.460Z,103248.56
2023-02-05T16:23:34.619Z,103248.56
2023-02-05T16:24:51.700Z,103266.84
2023-02-05T16:27:31.818Z,103277.34
2023-02-05T16:28:34.618Z,103277.34
2023-02-05T16:30:07.326Z,103263.34
2023-02-05T16:32:44.211Z,103293.84
2023-02-05T16:33:34.569Z,103293.84
2023-02-05T16:35:25.601Z,103209.00
2023-02-05T16:37:52.456Z,103248.31
2023-02-05T16:38:34.549Z,103248.31
2023-02-05T16:40:37.568Z,103312.91
2023-02-05T16:43:38.666Z,103193.13
2023-02-05T16:43:38.805Z,103193.13
2023-02-05T16:46:08.179Z,103323.28
2023-02-05T16:48:49.271Z,103319.81
2023-02-05T16:48:49.416Z,103319.81
2023-02-05T16:51:32.511Z,103340.72
2023-02-05T16:53:34.574Z,103340.72
2023-02-05T16:54:24.070Z,103125.06
2023-02-05T16:56:54.105Z,103296.19
2023-02-05T16:58:34.563Z,103296.19
2023-02-05T16:59:28.567Z,103313.72
2023-02-05T17:01:55.370Z,103323.28
2023-02-05T17:03:34.980Z,103323.28
2023-02-05T17:04:31.627Z,103351.25
2023-02-05T17:07:00.923Z,103317.88
2023-02-05T17:08:34.565Z,103317.88
2023-02-05T17:09:36.721Z,103335.44
2023-02-05T17:12:32.674Z,103335.44
2023-02-05T17:13:34.644Z,103335.44
2023-02-05T17:15:15.724Z,103327.50
2023-02-05T17:18:18.139Z,103359.59
2023-02-05T17:18:34.577Z,103359.59
2023-02-05T17:20:47.373Z,103305.28
2023-02-05T17:23:18.068Z,103337.56
2023-02-05T17:23:34.565Z,103337.56
2023-02-05T17:25:55.462Z,103367.25
2023-02-05T17:28:27.165Z,103335.66
2023-02-05T17:28:34.571Z,103335.66
2023-02-05T17:30:57.673Z,103376.63
2023-02-05T17:33:26.699Z,103297.09
2023-02-05T17:33:34.579Z,103297.09
2023-02-05T17:35:53.553Z,103370.31
2023-02-05T17:38:26.006Z,103380.81
2023-02-05T17:38:34.591Z,103380.81
2023-02-05T17:41:12.484Z,103354.72
2023-02-05T17:43:34.600Z,103354.72
2023-02-05T17:43:39.264Z,103302.00
2023-02-05T17:46:12.086Z,103358.13
2023-02-05T17:48:34.555Z,103358.13
2023-02-05T17:48:40.099Z,103267.19
2023-02-05T17:51:08.744Z,103293.38
2023-02-05T17:53:35.144Z,103329.28
2023-02-05T17:53:35.311Z,103329.28
2023-02-05T17:56:01.488Z,103348.41
2023-02-05T17:58:27.844Z,103370.19
2023-02-05T17:58:34.592Z,103370.19
2023-02-05T18:00:54.563Z,103400.94
2023-02-05T18:03:21.098Z,103375.78
2023-02-05T18:03:34.597Z,103375.78
2023-02-05T18:05:49.588Z,103118.75
2023-02-05T18:08:16.015Z,103347.75
2023-02-05T18:08:34.636Z,103347.75
2023-02-05T18:10:42.544Z,103386.06
2023-02-05T18:13:08.940Z,103254.91
2023-02-05T18:13:34.579Z,103254.91
2023-02-05T18:15:35.345Z,103272.25
2023-02-05T18:18:01.860Z,103374.63
2023-02-05T18:18:34.615Z,103374.63
2023-02-05T18:20:28.278Z,103316.97
2023-02-05T18:22:54.662Z,103280.19
2023-02-05T18:23:34.617Z,103280.19
2023-02-05T18:25:21.062Z,103390.38
2023-02-05T18:27:48.865Z,103273.16
2023-02-05T18:28:34.573Z,103273.16
2023-02-05T18:30:15.492Z,103259.06
2023-02-05T18:32:41.937Z,103366.72
2023-02-05T18:33:34.605Z,103366.72
2023-02-05T18:35:12.376Z,103335.19
2023-02-05T18:37:38.743Z,103351.84
2023-02-05T18:38:34.591Z,103351.84
2023-02-05T18:40:05.570Z,103339.69
2023-02-05T18:42:32.031Z,103376.50
2023-02-05T18:43:34.598Z,103376.50
2023-02-05T18:44:58.438Z,103358.06
2023-02-05T18:47:24.925Z,103297.56
2023-02-05T18:48:34.586Z,103297.56
2023-02-05T18:49:51.749Z,103343.03
2023-02-05T18:52:18.489Z,103380.69
2023-02-05T18:53:34.566Z,103380.69
2023-02-05T18:54:45.810Z,103378.94
2023-02-05T18:57:15.150Z,103298.34
2023-02-05T18:58:34.604Z,103298.34
2023-02-05T18:59:41.569Z,103395.53
2023-02-05T19:02:10.222Z,103397.25
2023-02-05T19:03:34.682Z,103397.25
2023-02-05T19:04:36.648Z,103327.22
2023-02-05T19:07:03.032Z,103374.31
2023-02-05T19:08:34.654Z,103374.31
2023-02-05T19:09:29.848Z,103401.56
2023-02-05T19:11:56.396Z,103415.66
2023-02-05T19:13:36.858Z,103415.66
2023-02-05T19:14:24.037Z,103423.63
2023-02-05T19:16:51.149Z,103392.97
2023-02-05T19:18:34.659Z,103392.97